Time;durP1;ratioP1;P1;durP2;ratioP2;P2;SDS_P1;SDS_P2;PMS_P1;PMS_P2;Temp;Humidity;BMP_temperature;BMP_pressure;BME280_temperature;BME280_humidity;BME280_pressure;Samples;Min_cycle;Max_cycle;Signal;HPM_P1;HPM_P2
2024/03/15 00:01:37;;;;;;;56.15;33.80;;;;;;;;;;5056425;28;20043;-61
2024/03/15 00:04:02;;;;;;;53.45;32.08;;;;;;;;;;5074563;28;20028;-61
2024/03/15 00:06:29;;;;;;;38.78;25.50;;;;;;;;;;5074389;28;20474;-61
2024/03/15 00:08:55;;;;;;;43.22;27.17;;;;;;;;;;5056377;28;20078;-61
2024/03/15 00:11:22;;;;;;;44.75;28.60;;;;;;;;;;5074277;28;20062;-61
2024/03/15 00:13:48;;;;;;;46.42;29.02;;;;;;;;;;5056014;28;20032;-67
2024/03/15 00:16:14;;;;;;;46.67;29.83;;;;;;;;;;5073721;28;20035;-68
2024/03/15 00:18:40;;;;;;;45.63;29.70;;;;;;;;;;5073525;28;20085;-67
2024/03/15 00:21:05;;;;;;;49.00;30.25;;;;;;;;;;5073750;28;20032;-68
2024/03/15 00:23:31;;;;;;;48.15;28.83;;;;;;;;;;5074063;28;20025;-67
2024/03/15 00:25:58;;;;;;;48.60;28.98;;;;;;;;;;5073901;28;20032;-67
2024/03/15 00:28:23;;;;;;;46.85;29.35;;;;;;;;;;5055372;28;20108;-68
2024/03/15 00:30:49;;;;;;;48.67;32.13;;;;;;;;;;5073582;28;20103;-68
2024/03/15 00:33:15;;;;;;;44.80;29.58;;;;;;;;;;5073917;28;20072;-68
2024/03/15 00:35:42;;;;;;;44.00;29.95;;;;;;;;;;5073728;28;20029;-68
2024/03/15 00:38:07;;;;;;;46.47;28.48;;;;;;;;;;5073386;28;20327;-68
2024/03/15 00:40:33;;;;;;;47.03;29.42;;;;;;;;;;5073609;28;20112;-67
2024/03/15 00:42:59;;;;;;;40.88;27.48;;;;;;;;;;5073867;28;20111;-67
2024/03/15 00:45:25;;;;;;;40.42;27.15;;;;;;;;;;5056038;28;20174;-67
2024/03/15 00:47:51;;;;;;;44.17;29.58;;;;;;;;;;5073177;28;20123;-67
2024/03/15 00:50:17;;;;;;;48.55;31.10;;;;;;;;;;5073476;28;20029;-67
2024/03/15 00:52:43;;;;;;;46.95;30.52;;;;;;;;;;5073104;28;20032;-66
2024/03/15 00:55:08;;;;;;;39.88;27.33;;;;;;;;;;5055707;28;20043;-67
2024/03/15 00:57:34;;;;;;;50.83;29.83;;;;;;;;;;5073037;28;20170;-67
2024/03/15 01:00:00;;;;;;;37.90;24.30;;;;;;;;;;5073314;28;20379;-68
2024/03/15 01:02:27;;;;;;;36.95;24.02;;;;;;;;;;5073237;28;20147;-67
2024/03/15 01:04:52;;;;;;;42.03;24.88;;;;;;;;;;5055583;28;20040;-67
2024/03/15 01:07:19;;;;;;;42.65;25.33;;;;;;;;;;5072869;28;20453;-68
2024/03/15 01:09:44;;;;;;;41.55;25.73;;;;;;;;;;5054715;28;20028;-67
2024/03/15 01:12:09;;;;;;;37.92;23.90;;;;;;;;;;5073292;28;20112;-68
2024/03/15 01:14:35;;;;;;;34.72;22.75;;;;;;;;;;5055489;28;20044;-66
2024/03/15 01:17:00;;;;;;;29.65;19.75;;;;;;;;;;5072897;28;20033;-66
2024/03/15 01:19:26;;;;;;;27.17;18.83;;;;;;;;;;5073053;28;20029;-67
2024/03/15 01:21:52;;;;;;;31.90;20.75;;;;;;;;;;5054952;28;20043;-67
2024/03/15 01:24:17;;;;;;;30.58;19.65;;;;;;;;;;5072918;28;20020;-66
2024/03/15 01:26:44;;;;;;;32.45;20.70;;;;;;;;;;5038316;28;20482;-67
2024/03/15 01:29:09;;;;;;;26.65;18.50;;;;;;;;;;5072367;28;20129;-67
2024/03/15 01:31:35;;;;;;;23.80;17.10;;;;;;;;;;5072428;28;20032;-68
2024/03/15 01:34:01;;;;;;;28.60;18.85;;;;;;;;;;5072420;28;20029;-68
2024/03/15 01:36:27;;;;;;;25.17;16.95;;;;;;;;;;5072764;28;20134;-68
2024/03/15 01:38:53;;;;;;;27.60;18.80;;;;;;;;;;5072406;28;20048;-67
2024/03/15 01:41:18;;;;;;;27.40;19.00;;;;;;;;;;5072619;28;20029;-62
2024/03/15 01:43:49;;;;;;;24.50;18.23;;;;;;;;;;5054839;28;20107;-62
2024/03/15 01:46:15;;;;;;;26.42;18.38;;;;;;;;;;5072403;28;20024;-62
2024/03/15 01:48:42;;;;;;;35.72;21.27;;;;;;;;;;5072403;28;20044;-62
2024/03/15 01:51:08;;;;;;;29.73;19.60;;;;;;;;;;5072536;28;20663;-62
2024/03/15 01:53:34;;;;;;;32.63;20.85;;;;;;;;;;5072384;28;20045;-62
2024/03/15 01:56:00;;;;;;;32.58;20.77;;;;;;;;;;5072018;28;20028;-62
2024/03/15 01:58:26;;;;;;;31.52;20.50;;;;;;;;;;5071789;28;20044;-62
2024/03/15 02:00:51;;;;;;;29.13;19.70;;;;;;;;;;5071826;28;20465;-62
2024/03/15 02:03:17;;;;;;;32.05;19.88;;;;;;;;;;5071475;28;20544;-61
2024/03/15 02:05:43;;;;;;;33.38;19.83;;;;;;;;;;5071947;28;20025;-61
2024/03/15 02:08:09;;;;;;;31.98;20.70;;;;;;;;;;5053648;28;20044;-62
2024/03/15 02:10:34;;;;;;;30.70;20.73;;;;;;;;;;5071566;28;20033;-62
2024/03/15 02:13:01;;;;;;;32.00;20.35;;;;;;;;;;5072134;28;20373;-62
2024/03/15 02:15:27;;;;;;;40.00;25.23;;;;;;;;;;5054321;28;20038;-61
2024/03/15 02:17:54;;;;;;;58.58;36.65;;;;;;;;;;5071817;28;20025;-62
2024/03/15 02:20:23;;;;;;;60.63;36.10;;;;;;;;;;5071312;28;20044;-61
2024/03/15 02:22:48;;;;;;;71.07;41.08;;;;;;;;;;5053552;28;20071;-61
2024/03/15 02:25:14;;;;;;;52.50;31.25;;;;;;;;;;5053845;28;20068;-62
2024/03/15 02:27:39;;;;;;;46.13;28.65;;;;;;;;;;5071755;28;20032;-62
2024/03/15 02:30:06;;;;;;;39.45;24.52;;;;;;;;;;5071943;28;20086;-61
2024/03/15 02:32:32;;;;;;;52.28;30.98;;;;;;;;;;5071860;28;20074;-61
2024/03/15 02:34:58;;;;;;;60.40;33.45;;;;;;;;;;5053644;28;20743;-61
2024/03/15 02:37:23;;;;;;;61.40;32.92;;;;;;;;;;5053211;28;20039;-61
2024/03/15 02:39:51;;;;;;;54.38;29.48;;;;;;;;;;5071152;28;20082;-61
2024/03/15 02:42:16;;;;;;;49.53;28.48;;;;;;;;;;5071199;28;20024;-61
2024/03/15 02:44:42;;;;;;;48.58;27.02;;;;;;;;;;5070224;28;20286;-61
2024/03/15 02:47:07;;;;;;;48.40;28.15;;;;;;;;;;5053363;28;20097;-62
2024/03/15 02:49:32;;;;;;;44.25;25.75;;;;;;;;;;5071310;28;20013;-62
2024/03/15 02:51:58;;;;;;;43.20;26.10;;;;;;;;;;5071217;28;20028;-62
2024/03/15 02:54:27;;;;;;;47.03;26.30;;;;;;;;;;5070952;28;20036;-62
2024/03/15 02:56:53;;;;;;;32.72;21.55;;;;;;;;;;5053200;28;20505;-61
2024/03/15 02:59:19;;;;;;;30.92;18.98;;;;;;;;;;5053336;28;20033;-61
2024/03/15 03:01:46;;;;;;;30.92;21.13;;;;;;;;;;5071019;28;20154;-61
2024/03/15 03:04:14;;;;;;;32.90;20.30;;;;;;;;;;5070751;28;20090;-61
2024/03/15 03:06:42;;;;;;;37.22;21.02;;;;;;;;;;5071056;28;20134;-61
2024/03/15 03:09:09;;;;;;;34.63;20.83;;;;;;;;;;5071100;28;20504;-61
2024/03/15 03:11:36;;;;;;;32.30;20.98;;;;;;;;;;5071008;28;20866;-61
2024/03/15 03:14:04;;;;;;;30.02;19.45;;;;;;;;;;5070701;28;20024;-61
2024/03/15 03:16:32;;;;;;;29.60;19.45;;;;;;;;;;5070742;28;20159;-61
2024/03/15 03:18:58;;;;;;;29.92;19.95;;;;;;;;;;5071082;28;20036;-61
2024/03/15 03:21:24;;;;;;;27.52;18.50;;;;;;;;;;5070636;28;20051;-61
2024/03/15 03:23:49;;;;;;;27.77;18.42;;;;;;;;;;5070704;28;20029;-61
2024/03/15 03:26:14;;;;;;;27.73;18.50;;;;;;;;;;5070860;28;20032;-61
2024/03/15 03:28:40;;;;;;;28.75;18.70;;;;;;;;;;5052706;28;20028;-61
2024/03/15 03:31:05;;;;;;;28.05;17.90;;;;;;;;;;5070678;28;20024;-61
2024/03/15 03:33:31;;;;;;;27.10;18.98;;;;;;;;;;5069979;28;20025;-60
2024/03/15 03:35:56;;;;;;;24.15;17.70;;;;;;;;;;5070590;28;20082;-60
2024/03/15 03:38:22;;;;;;;24.45;17.75;;;;;;;;;;5069426;28;20048;-61
2024/03/15 03:40:47;;;;;;;27.80;17.88;;;;;;;;;;5051607;28;20124;-61
2024/03/15 03:43:13;;;;;;;23.08;17.33;;;;;;;;;;5052632;28;20028;-61
2024/03/15 03:45:42;;;;;;;27.42;18.00;;;;;;;;;;5070520;28;20116;-61
2024/03/15 03:48:08;;;;;;;25.10;17.25;;;;;;;;;;5070444;28;20038;-65
2024/03/15 03:50:33;;;;;;;25.58;16.85;;;;;;;;;;5070390;28;20050;-68
2024/03/15 03:52:59;;;;;;;25.77;17.38;;;;;;;;;;5052428;28;20494;-68
2024/03/15 03:55:25;;;;;;;22.67;16.40;;;;;;;;;;5070254;28;20430;-67
2024/03/15 03:57:51;;;;;;;25.33;17.10;;;;;;;;;;5070111;28;20482;-61
2024/03/15 04:00:16;;;;;;;27.35;19.23;;;;;;;;;;5070427;28;20044;-61
2024/03/15 04:02:43;;;;;;;26.80;17.90;;;;;;;;;;5070607;28;20523;-61
2024/03/15 04:05:09;;;;;;;34.25;18.45;;;;;;;;;;5070518;28;20040;-61
2024/03/15 04:07:34;;;;;;;23.17;17.05;;;;;;;;;;5070189;28;20051;-62
2024/03/15 04:10:00;;;;;;;28.33;19.27;;;;;;;;;;5070039;28;20119;-61
2024/03/15 04:12:27;;;;;;;35.42;22.85;;;;;;;;;;5070595;28;20043;-61
2024/03/15 04:14:55;;;;;;;30.60;19.60;;;;;;;;;;5070399;28;20409;-61
2024/03/15 04:17:20;;;;;;;24.42;17.77;;;;;;;;;;5069944;28;20044;-61
2024/03/15 04:19:47;;;;;;;29.10;18.77;;;;;;;;;;5070326;28;20351;-61
2024/03/15 04:22:13;;;;;;;31.02;18.98;;;;;;;;;;5070037;28;20029;-62
2024/03/15 04:24:38;;;;;;;31.77;20.42;;;;;;;;;;5069980;28;20078;-61
2024/03/15 04:27:04;;;;;;;27.25;19.27;;;;;;;;;;5070240;28;20063;-61
2024/03/15 04:29:32;;;;;;;49.28;24.05;;;;;;;;;;5069709;28;20128;-61
2024/03/15 04:31:58;;;;;;;44.63;23.38;;;;;;;;;;5069726;28;20024;-61
2024/03/15 04:34:24;;;;;;;47.83;25.92;;;;;;;;;;5069704;28;20035;-63
2024/03/15 04:36:50;;;;;;;57.17;29.33;;;;;;;;;;5071680;28;20986;-69
2024/03/15 04:39:17;;;;;;;49.50;28.10;;;;;;;;;;5071104;28;20069;-63
2024/03/15 04:41:42;;;;;;;44.80;26.67;;;;;;;;;;5053998;28;20063;-62
2024/03/15 04:44:08;;;;;;;42.38;26.23;;;;;;;;;;5073931;28;20419;-62
2024/03/15 04:46:33;;;;;;;37.45;23.48;;;;;;;;;;5075222;28;20028;-62
2024/03/15 04:49:01;;;;;;;35.65;23.35;;;;;;;;;;5076205;28;20032;-63
2024/03/15 04:51:26;;;;;;;33.28;21.30;;;;;;;;;;5075827;28;20056;-63
2024/03/15 04:53:51;;;;;;;30.17;20.77;;;;;;;;;;5075395;28;20070;-63
2024/03/15 04:56:18;;;;;;;35.08;23.48;;;;;;;;;;5074787;28;20107;-62
2024/03/15 04:58:45;;;;;;;33.65;21.73;;;;;;;;;;5075307;28;20081;-62
2024/03/15 05:01:11;;;;;;;40.55;27.55;;;;;;;;;;5056617;28;20042;-62
2024/03/15 05:03:37;;;;;;;46.53;32.83;;;;;;;;;;5074759;28;20025;-61
2024/03/15 05:06:04;;;;;;;46.03;32.35;;;;;;;;;;5074598;28;20028;-61
2024/03/15 05:08:29;;;;;;;46.00;31.42;;;;;;;;;;5074017;28;20044;-60
2024/03/15 05:10:55;;;;;;;49.20;33.97;;;;;;;;;;5076053;28;20487;-61
2024/03/15 05:13:20;;;;;;;37.53;25.67;;;;;;;;;;5076387;28;20355;-61
2024/03/15 05:15:45;;;;;;;30.83;21.23;;;;;;;;;;5076599;28;20029;-61
2024/03/15 05:18:11;;;;;;;24.02;18.58;;;;;;;;;;5058254;28;20373;-62
2024/03/15 05:20:36;;;;;;;23.98;18.63;;;;;;;;;;5076185;28;20051;-61
2024/03/15 05:23:02;;;;;;;54.75;39.85;;;;;;;;;;5075713;28;20060;-61
2024/03/15 05:25:27;;;;;;;59.53;44.60;;;;;;;;;;5058444;28;20025;-61
2024/03/15 05:27:54;;;;;;;31.20;22.02;;;;;;;;;;5075925;28;20066;-61
2024/03/15 05:30:23;;;;;;;26.27;17.88;;;;;;;;;;5076172;28;20111;-61
2024/03/15 05:32:49;;;;;;;27.10;18.67;;;;;;;;;;5075691;28;20106;-60
2024/03/15 05:35:18;;;;;;;26.25;17.48;;;;;;;;;;5075824;28;20036;-61
2024/03/15 05:37:45;;;;;;;28.95;17.35;;;;;;;;;;5075426;28;20048;-61
2024/03/15 05:40:10;;;;;;;23.25;15.68;;;;;;;;;;5057988;28;20044;-61
2024/03/15 05:42:36;;;;;;;23.92;16.48;;;;;;;;;;5076136;28;20025;-61
2024/03/15 05:45:04;;;;;;;25.65;17.48;;;;;;;;;;5076164;28;20032;-60
2024/03/15 05:47:29;;;;;;;29.25;18.48;;;;;;;;;;5075903;28;20033;-65
2024/03/15 05:49:55;;;;;;;25.90;18.60;;;;;;;;;;5075711;28;20573;-65
2024/03/15 05:52:20;;;;;;;29.40;20.75;;;;;;;;;;5075251;28;20055;-66
2024/03/15 05:54:45;;;;;;;36.90;23.33;;;;;;;;;;5075562;28;20040;-65
2024/03/15 05:57:11;;;;;;;25.77;18.98;;;;;;;;;;5075386;28;20036;-65
2024/03/15 05:59:36;;;;;;;24.50;16.98;;;;;;;;;;5074981;28;20025;-66
2024/03/15 06:02:02;;;;;;;17.23;13.20;;;;;;;;;;5057302;28;20025;-65
2024/03/15 06:04:27;;;;;;;18.67;13.93;;;;;;;;;;5074824;28;20099;-66
2024/03/15 06:06:52;;;;;;;16.52;12.23;;;;;;;;;;5075310;28;20029;-66
2024/03/15 06:09:21;;;;;;;14.32;10.98;;;;;;;;;;5075376;28;20082;-66
2024/03/15 06:11:48;;;;;;;17.17;13.20;;;;;;;;;;5075257;28;20029;-66
2024/03/15 06:14:13;;;;;;;16.05;14.02;;;;;;;;;;5075416;28;20040;-66
2024/03/15 06:16:39;;;;;;;14.27;11.90;;;;;;;;;;5075473;28;20016;-66
2024/03/15 06:19:06;;;;;;;12.93;11.38;;;;;;;;;;5075244;28;20076;-66
2024/03/15 06:21:33;;;;;;;10.95;9.07;;;;;;;;;;5074701;28;20026;-65
2024/03/15 06:24:00;;;;;;;17.25;14.35;;;;;;;;;;5074462;28;20482;-66
2024/03/15 06:26:26;;;;;;;8.75;7.85;;;;;;;;;;5073811;28;20048;-66
2024/03/15 06:28:53;;;;;;;9.40;7.10;;;;;;;;;;5074679;28;20430;-66
2024/03/15 06:31:19;;;;;;;11.95;8.38;;;;;;;;;;5073957;28;20013;-66
2024/03/15 06:33:45;;;;;;;11.30;9.13;;;;;;;;;;5074261;28;20520;-66
2024/03/15 06:36:16;;;;;;;16.45;13.02;;;;;;;;;;5040221;28;20035;-66
2024/03/15 06:41:13;;;;;;;7.70;6.28;;;;;;;;;;5074570;28;20028;-66
2024/03/15 06:43:47;;;;;;;8.07;6.55;;;;;;;;;;5074639;28;20081;-66
2024/03/15 06:46:24;;;;;;;8.32;6.63;;;;;;;;;;5057008;28;20028;-66
2024/03/15 06:49:13;;;;;;;5.85;5.20;;;;;;;;;;5074460;28;20036;-60
2024/03/15 06:57:01;;;;;;;7.68;5.90;;;;;;;;;;5090900;22;20462;-65
2024/03/15 06:59:27;;;;;;;5.90;5.22;;;;;;;;;;5093315;28;20093;-61
2024/03/15 07:01:55;;;;;;;7.05;5.60;;;;;;;;;;5093270;28;20028;-60
2024/03/15 07:04:20;;;;;;;6.45;5.63;;;;;;;;;;5093499;28;20055;-65
2024/03/15 07:06:46;;;;;;;7.38;5.57;;;;;;;;;;5075097;28;20072;-66
2024/03/15 07:09:14;;;;;;;9.63;6.70;;;;;;;;;;5075328;28;20032;-66
2024/03/15 07:11:47;;;;;;;7.18;6.38;;;;;;;;;;5058772;28;20020;-66
2024/03/15 07:14:12;;;;;;;5.93;5.25;;;;;;;;;;5092084;28;20036;-66
2024/03/15 07:16:38;;;;;;;6.63;5.50;;;;;;;;;;5091977;28;20160;-66
2024/03/15 07:19:05;;;;;;;7.05;5.80;;;;;;;;;;5092045;28;20028;-66
2024/03/15 07:21:32;;;;;;;8.32;5.95;;;;;;;;;;5092137;28;20024;-66
2024/03/15 07:23:57;;;;;;;7.05;6.28;;;;;;;;;;5074471;28;20466;-66
2024/03/15 07:26:22;;;;;;;14.80;10.88;;;;;;;;;;5092570;28;20032;-66
2024/03/15 07:28:48;;;;;;;10.45;9.35;;;;;;;;;;5075381;28;20114;-66
2024/03/15 07:31:14;;;;;;;7.22;6.38;;;;;;;;;;5075693;28;20028;-66
2024/03/15 07:33:40;;;;;;;8.80;7.90;;;;;;;;;;5093905;28;20458;-66
2024/03/15 07:36:07;;;;;;;7.00;5.40;;;;;;;;;;5093768;28;20016;-66
2024/03/15 07:38:33;;;;;;;7.38;6.18;;;;;;;;;;5093818;28;20012;-66
2024/03/15 07:41:02;;;;;;;7.60;6.80;;;;;;;;;;5075629;28;20530;-66
2024/03/15 07:43:27;;;;;;;6.88;5.97;;;;;;;;;;5093799;28;20031;-66
2024/03/15 07:45:53;;;;;;;6.72;6.03;;;;;;;;;;5093807;28;20028;-66
2024/03/15 07:48:18;;;;;;;8.10;6.05;;;;;;;;;;5093746;28;20028;-66
2024/03/15 07:50:44;;;;;;;6.72;6.13;;;;;;;;;;5093603;28;20036;-66
2024/03/15 07:53:09;;;;;;;6.13;5.53;;;;;;;;;;5093584;28;20051;-66
2024/03/15 07:58:12;;;;;;;16.65;8.95;;;;;;;;;;5071441;28;20406;-61
2024/03/15 08:00:38;;;;;;;8.25;6.38;;;;;;;;;;5055313;28;20034;-60
2024/03/15 08:03:06;;;;;;;6.70;5.25;;;;;;;;;;5073247;28;20043;-60
2024/03/15 08:05:33;;;;;;;6.65;6.05;;;;;;;;;;5073321;28;20477;-60
2024/03/15 08:07:59;;;;;;;13.00;6.82;;;;;;;;;;5073238;28;20094;-60
2024/03/15 08:10:24;;;;;;;11.65;7.40;;;;;;;;;;5073300;28;20478;-60
2024/03/15 08:12:50;;;;;;;7.80;6.25;;;;;;;;;;5073272;28;20037;-60
2024/03/15 08:15:15;;;;;;;7.30;5.72;;;;;;;;;;5073287;28;20033;-60
2024/03/15 08:17:43;;;;;;;6.65;5.65;;;;;;;;;;5073037;28;20059;-60
2024/03/15 08:20:10;;;;;;;94.10;53.95;;;;;;;;;;5075737;28;20032;-60
2024/03/15 08:22:37;;;;;;;55.33;37.05;;;;;;;;;;5076972;28;20036;-60
2024/03/15 08:25:02;;;;;;;21.05;16.65;;;;;;;;;;5077232;28;20099;-60
2024/03/15 08:27:29;;;;;;;7.60;6.10;;;;;;;;;;5058959;28;20581;-60
2024/03/15 08:29:56;;;;;;;5.20;4.70;;;;;;;;;;5076812;28;20111;-60
2024/03/15 08:32:22;;;;;;;7.10;5.85;;;;;;;;;;5076824;28;20047;-60
2024/03/15 08:34:48;;;;;;;5.75;4.35;;;;;;;;;;5058787;28;20032;-60
2024/03/15 08:37:14;;;;;;;4.78;4.28;;;;;;;;;;5076704;28;20033;-60
2024/03/15 08:39:40;;;;;;;7.80;7.00;;;;;;;;;;5076704;28;20387;-60
2024/03/15 08:42:07;;;;;;;10.52;7.38;;;;;;;;;;5076889;28;20109;-60
2024/03/15 08:44:33;;;;;;;6.65;5.40;;;;;;;;;;5076698;28;20533;-60
2024/03/15 08:46:58;;;;;;;5.93;5.32;;;;;;;;;;5076497;28;20028;-60
2024/03/15 08:49:26;;;;;;;4.93;4.43;;;;;;;;;;5058691;28;20472;-60
2024/03/15 08:51:54;;;;;;;6.03;5.30;;;;;;;;;;5076701;28;20032;-60
2024/03/15 08:54:19;;;;;;;6.20;5.45;;;;;;;;;;5076432;28;20175;-60
2024/03/15 08:56:45;;;;;;;7.07;5.35;;;;;;;;;;5058328;28;20128;-60
2024/03/15 08:59:10;;;;;;;6.15;5.55;;;;;;;;;;5076417;28;20108;-60
2024/03/15 09:01:37;;;;;;;6.22;5.63;;;;;;;;;;5076509;28;20482;-60
2024/03/15 09:04:07;;;;;;;6.53;4.82;;;;;;;;;;5058274;28;20044;-60
2024/03/15 09:06:36;;;;;;;6.90;5.05;;;;;;;;;;5058198;28;20024;-60
2024/03/15 09:09:08;;;;;;;8.25;6.57;;;;;;;;;;5076182;28;20033;-60
2024/03/15 09:11:33;;;;;;;6.07;5.47;;;;;;;;;;5076408;28;20021;-60
2024/03/15 09:13:58;;;;;;;5.95;5.40;;;;;;;;;;5076010;28;20027;-60
2024/03/15 09:16:24;;;;;;;9.43;5.55;;;;;;;;;;5057960;28;20421;-60
2024/03/15 09:18:50;;;;;;;6.13;4.97;;;;;;;;;;5057794;28;20163;-60
2024/03/15 09:21:19;;;;;;;9.73;6.03;;;;;;;;;;5076420;28;20154;-60
2024/03/15 09:23:47;;;;;;;6.20;5.57;;;;;;;;;;5076540;28;20036;-60
2024/03/15 09:26:13;;;;;;;4.22;3.85;;;;;;;;;;5075982;28;20031;-60
2024/03/15 09:28:43;;;;;;;6.15;3.95;;;;;;;;;;5057170;28;20116;-61
2024/03/15 09:31:12;;;;;;;4.93;3.80;;;;;;;;;;5074979;28;20462;-60
2024/03/15 09:33:39;;;;;;;5.90;5.03;;;;;;;;;;5075839;28;20118;-60
2024/03/15 09:36:04;;;;;;;4.05;3.50;;;;;;;;;;5075932;28;20033;-60
2024/03/15 09:38:32;;;;;;;4.30;3.90;;;;;;;;;;5076027;28;20425;-60
2024/03/15 09:41:00;;;;;;;4.53;4.13;;;;;;;;;;5057583;28;20485;-60
2024/03/15 09:43:26;;;;;;;6.10;4.88;;;;;;;;;;5075926;28;20043;-60
2024/03/15 09:45:53;;;;;;;5.85;4.30;;;;;;;;;;5075610;28;20530;-60
2024/03/15 09:48:19;;;;;;;4.93;4.47;;;;;;;;;;5057170;28;20032;-60
2024/03/15 09:50:46;;;;;;;7.45;5.55;;;;;;;;;;5075587;28;20036;-60
2024/03/15 09:53:12;;;;;;;5.90;5.30;;;;;;;;;;5040602;28;20033;-61
2024/03/15 09:55:38;;;;;;;6.85;5.07;;;;;;;;;;5055630;28;20111;-60
2024/03/15 09:58:06;;;;;;;7.85;6.07;;;;;;;;;;5074435;28;20056;-60
2024/03/15 10:00:33;;;;;;;8.27;6.15;;;;;;;;;;5072177;28;20070;-60
2024/03/15 10:02:58;;;;;;;9.45;6.20;;;;;;;;;;5074757;28;20024;-60
2024/03/15 10:05:24;;;;;;;8.48;6.40;;;;;;;;;;5075530;28;20478;-60
2024/03/15 10:07:50;;;;;;;8.35;7.00;;;;;;;;;;5057846;28;20099;-66
2024/03/15 10:10:16;;;;;;;7.28;6.35;;;;;;;;;;5057490;28;20451;-66
2024/03/15 10:12:46;;;;;;;5.85;4.60;;;;;;;;;;5074696;28;20028;-66
2024/03/15 10:15:12;;;;;;;5.28;4.00;;;;;;;;;;5074954;28;20115;-67
2024/03/15 10:17:39;;;;;;;5.40;4.32;;;;;;;;;;5074648;28;20024;-66
2024/03/15 10:20:24;;;;;;;6.82;5.53;;;;;;;;;;5056961;28;20036;-67
2024/03/15 10:22:53;;;;;;;5.88;4.18;;;;;;;;;;5074726;28;20032;-67
2024/03/15 10:25:21;;;;;;;5.40;4.68;;;;;;;;;;5074667;28;20435;-66
2024/03/15 10:27:49;;;;;;;5.95;4.80;;;;;;;;;;5074633;28;20103;-66
2024/03/15 10:30:16;;;;;;;6.57;5.93;;;;;;;;;;5074540;28;20044;-66
2024/03/15 10:32:47;;;;;;;6.28;5.18;;;;;;;;;;5074543;28;20063;-66
2024/03/15 10:35:13;;;;;;;7.22;4.82;;;;;;;;;;5074574;28;20115;-66
2024/03/15 10:37:39;;;;;;;9.02;7.25;;;;;;;;;;5074388;28;20107;-66
2024/03/15 10:40:09;;;;;;;9.55;7.00;;;;;;;;;;5057575;28;20436;-66
2024/03/15 10:42:35;;;;;;;5.47;4.93;;;;;;;;;;5073758;28;20040;-66
2024/03/15 10:45:01;;;;;;;6.30;5.07;;;;;;;;;;5074247;28;20029;-66
2024/03/15 10:47:28;;;;;;;10.80;7.45;;;;;;;;;;5074523;28;20139;-66
2024/03/15 10:49:54;;;;;;;6.93;5.82;;;;;;;;;;5074179;28;20039;-66
2024/03/15 10:52:19;;;;;;;6.75;5.30;;;;;;;;;;5074147;28;20394;-66
2024/03/15 10:54:48;;;;;;;6.43;5.20;;;;;;;;;;5074115;28;20094;-66
2024/03/15 10:57:17;;;;;;;7.68;5.80;;;;;;;;;;5055932;28;20482;-66
2024/03/15 10:59:44;;;;;;;6.72;5.07;;;;;;;;;;5074203;28;20498;-67
2024/03/15 11:02:10;;;;;;;10.45;7.30;;;;;;;;;;5073625;28;20024;-67
2024/03/15 11:04:35;;;;;;;6.35;4.57;;;;;;;;;;5073902;28;20038;-66
2024/03/15 11:07:01;;;;;;;7.70;5.97;;;;;;;;;;5056092;28;20031;-67
2024/03/15 11:09:28;;;;;;;8.13;6.25;;;;;;;;;;5074426;28;20064;-67
2024/03/15 11:12:05;;;;;;;8.18;5.68;;;;;;;;;;5073853;28;20036;-67
2024/03/15 11:14:31;;;;;;;5.25;4.72;;;;;;;;;;5074145;28;20031;-67
2024/03/15 11:17:05;;;;;;;4.97;4.47;;;;;;;;;;5074468;28;20115;-67
2024/03/15 11:19:39;;;;;;;5.03;4.22;;;;;;;;;;5074036;28;20390;-67
2024/03/15 11:22:05;;;;;;;6.38;4.85;;;;;;;;;;5039432;28;20043;-67
2024/03/15 11:24:41;;;;;;;5.70;5.15;;;;;;;;;;5073848;28;20032;-67
2024/03/15 11:27:11;;;;;;;5.97;5.10;;;;;;;;;;5073796;28;20036;-67
2024/03/15 11:29:36;;;;;;;5.88;4.80;;;;;;;;;;5073619;28;20032;-67
2024/03/15 11:32:01;;;;;;;6.65;5.25;;;;;;;;;;5073767;28;20090;-67
2024/03/15 11:34:27;;;;;;;6.00;5.22;;;;;;;;;;5055887;28;20052;-67
2024/03/15 11:36:53;;;;;;;5.80;4.25;;;;;;;;;;5073538;28;20470;-67
2024/03/15 11:39:18;;;;;;;5.15;4.65;;;;;;;;;;5073960;28;20459;-67
2024/03/15 11:41:45;;;;;;;8.93;7.00;;;;;;;;;;5039670;28;20037;-67
2024/03/15 11:44:10;;;;;;;5.63;5.10;;;;;;;;;;5073960;28;20038;-67
2024/03/15 11:46:35;;;;;;;6.32;5.45;;;;;;;;;;5074221;28;20029;-67
2024/03/15 11:49:03;;;;;;;7.22;5.13;;;;;;;;;;5073860;28;20073;-67
2024/03/15 11:51:28;;;;;;;6.45;4.47;;;;;;;;;;5073964;28;20482;-67
2024/03/15 11:53:54;;;;;;;6.22;4.93;;;;;;;;;;5076258;28;20104;-67
2024/03/15 11:56:21;;;;;;;6.38;5.35;;;;;;;;;;5077771;28;20086;-67
2024/03/15 11:58:48;;;;;;;33.80;7.05;;;;;;;;;;5059847;28;20032;-67
2024/03/15 12:01:14;;;;;;;5.82;5.13;;;;;;;;;;5077509;28;20117;-67
2024/03/15 12:03:41;;;;;;;7.35;5.35;;;;;;;;;;5077462;28;20056;-67
2024/03/15 12:06:07;;;;;;;6.88;4.82;;;;;;;;;;5059439;28;20043;-67
2024/03/15 12:08:32;;;;;;;5.40;4.70;;;;;;;;;;5077291;28;20040;-67
2024/03/15 12:10:57;;;;;;;6.47;4.78;;;;;;;;;;5077189;28;20032;-67
2024/03/15 12:13:24;;;;;;;5.88;4.68;;;;;;;;;;5077557;28;20095;-61
2024/03/15 12:15:50;;;;;;;7.43;5.85;;;;;;;;;;5077150;28;20028;-67
2024/03/15 12:18:16;;;;;;;8.65;5.72;;;;;;;;;;5077162;28;20040;-66
2024/03/15 12:20:43;;;;;;;7.18;6.30;;;;;;;;;;5077091;28;20050;-67
2024/03/15 12:23:12;;;;;;;6.95;5.30;;;;;;;;;;5077025;28;20031;-67
2024/03/15 12:25:38;;;;;;;6.78;6.07;;;;;;;;;;5076971;28;20036;-67
2024/03/15 12:28:07;;;;;;;9.30;7.30;;;;;;;;;;5076918;28;20074;-67
2024/03/15 12:30:33;;;;;;;5.43;4.47;;;;;;;;;;5076963;28;20028;-67
2024/03/15 12:32:58;;;;;;;5.00;4.45;;;;;;;;;;5076883;28;20439;-66
2024/03/15 12:35:24;;;;;;;8.70;6.97;;;;;;;;;;5076715;28;20029;-66
2024/03/15 12:37:53;;;;;;;9.23;7.13;;;;;;;;;;5076705;28;20059;-66
2024/03/15 12:40:21;;;;;;;8.18;6.13;;;;;;;;;;5076759;28;20024;-66
2024/03/15 12:42:46;;;;;;;6.63;5.38;;;;;;;;;;5076754;28;20028;-66
2024/03/15 12:45:12;;;;;;;6.85;5.50;;;;;;;;;;5076771;28;20035;-66
2024/03/15 12:47:40;;;;;;;7.88;5.78;;;;;;;;;;5076541;28;20032;-66
2024/03/15 12:50:09;;;;;;;7.40;4.47;;;;;;;;;;5076518;28;20042;-66
2024/03/15 12:52:34;;;;;;;8.18;5.90;;;;;;;;;;5058691;28;20406;-66
2024/03/15 12:55:00;;;;;;;10.63;6.10;;;;;;;;;;5058599;28;20086;-66
2024/03/15 12:57:28;;;;;;;6.95;5.60;;;;;;;;;;5076167;28;20434;-67
2024/03/15 12:59:53;;;;;;;8.40;5.32;;;;;;;;;;5041792;28;20033;-67
2024/03/15 13:02:19;;;;;;;7.93;5.88;;;;;;;;;;5076235;28;20032;-67
2024/03/15 13:04:44;;;;;;;6.55;5.57;;;;;;;;;;5075953;28;20059;-67
2024/03/15 13:07:10;;;;;;;10.35;6.13;;;;;;;;;;5076912;28;20040;-67
2024/03/15 13:09:35;;;;;;;6.82;5.57;;;;;;;;;;5076810;28;20409;-67
2024/03/15 13:12:01;;;;;;;8.48;6.80;;;;;;;;;;5076593;28;20047;-67
2024/03/15 13:14:26;;;;;;;8.80;5.90;;;;;;;;;;5058736;28;20041;-67
2024/03/15 13:16:52;;;;;;;8.25;6.28;;;;;;;;;;5076530;28;20021;-66
2024/03/15 13:19:17;;;;;;;6.88;5.63;;;;;;;;;;5076181;28;20020;-66
2024/03/15 13:21:43;;;;;;;5.95;4.97;;;;;;;;;;5041870;28;20505;-66
2024/03/15 13:24:08;;;;;;;8.20;4.88;;;;;;;;;;5076293;28;20094;-67
2024/03/15 13:26:34;;;;;;;7.40;5.45;;;;;;;;;;5057923;28;20037;-66
2024/03/15 13:28:59;;;;;;;6.82;5.95;;;;;;;;;;5075884;28;20067;-67
2024/03/15 13:31:26;;;;;;;6.18;5.50;;;;;;;;;;5076121;28;20403;-68
2024/03/15 13:33:51;;;;;;;6.78;5.15;;;;;;;;;;5076343;28;20059;-68
2024/03/15 13:36:16;;;;;;;6.65;5.97;;;;;;;;;;5057882;28;20051;-67
2024/03/15 13:38:42;;;;;;;8.70;5.95;;;;;;;;;;5075738;28;20078;-67
2024/03/15 13:41:08;;;;;;;7.50;6.10;;;;;;;;;;5076431;28;20020;-68
2024/03/15 13:43:35;;;;;;;7.60;5.07;;;;;;;;;;5074303;28;20556;-67
2024/03/15 13:46:02;;;;;;;6.00;5.28;;;;;;;;;;5073960;28;20017;-67
2024/03/15 13:48:33;;;;;;;6.10;5.40;;;;;;;;;;5074030;28;20078;-66
2024/03/15 13:50:59;;;;;;;6.53;5.38;;;;;;;;;;5075863;28;20035;-68
2024/03/15 13:53:24;;;;;;;6.13;5.25;;;;;;;;;;5057591;28;20401;-67
2024/03/15 13:55:49;;;;;;;8.05;5.65;;;;;;;;;;5057567;28;20432;-67
2024/03/15 13:58:15;;;;;;;4.75;4.25;;;;;;;;;;5075012;28;20482;-68
2024/03/15 14:00:42;;;;;;;4.95;4.18;;;;;;;;;;5074023;28;20070;-68
2024/03/15 14:03:08;;;;;;;5.32;4.20;;;;;;;;;;5073843;28;20017;-68
2024/03/15 14:05:37;;;;;;;5.95;4.75;;;;;;;;;;5056202;28;20610;-68
2024/03/15 14:08:06;;;;;;;4.82;4.20;;;;;;;;;;5073966;28;20033;-68
2024/03/15 14:10:36;;;;;;;4.97;4.10;;;;;;;;;;5074051;28;20024;-68
2024/03/15 14:13:04;;;;;;;5.03;4.38;;;;;;;;;;5055296;28;20131;-67
2024/03/15 14:15:31;;;;;;;5.03;4.43;;;;;;;;;;5074726;28;20036;-67
2024/03/15 14:17:58;;;;;;;7.00;5.07;;;;;;;;;;5073669;28;20020;-68
2024/03/15 14:20:29;;;;;;;7.32;4.82;;;;;;;;;;5074990;28;20021;-67
2024/03/15 14:22:56;;;;;;;5.10;4.38;;;;;;;;;;5074909;28;20024;-61
2024/03/15 14:25:33;;;;;;;6.63;5.05;;;;;;;;;;5074717;28;20035;-60
2024/03/15 14:28:00;;;;;;;9.20;5.63;;;;;;;;;;5074904;28;20410;-61
2024/03/15 14:30:26;;;;;;;9.80;5.13;;;;;;;;;;5074583;28;20032;-60
2024/03/15 14:32:52;;;;;;;6.13;5.45;;;;;;;;;;5046853;28;20025;-61
2024/03/15 14:35:17;;;;;;;8.00;4.82;;;;;;;;;;5071089;28;20085;-60
2024/03/15 14:37:47;;;;;;;7.40;5.40;;;;;;;;;;5071044;28;20123;-60